Time;durP1;ratioP1;P1;durP2;ratioP2;P2;SDS_P1;SDS_P2;PMS_P1;PMS_P2;Temp;Humidity;BMP_temperature;BMP_pressure;BME280_temperature;BME280_humidity;BME280_pressure;Samples;Min_cycle;Max_cycle;Signal;HPM_P1;HPM_P2
2024/01/14 00:00:51;;;;;;;1.10;1.00;;;3.10;99.90;;;;;;5155192;27;20123;-73
2024/01/14 00:03:16;;;;;;;1.00;1.00;;;3.10;99.90;;;;;;5155541;27;20035;-72
2024/01/14 00:05:42;;;;;;;1.10;1.00;;;3.10;99.90;;;;;;5155095;27;20035;-72
2024/01/14 00:08:10;;;;;;;1.10;1.00;;;3.10;99.90;;;;;;5155071;27;20460;-72
2024/01/14 00:10:36;;;;;;;1.20;1.10;;;3.10;99.90;;;;;;5155142;27;20078;-71
2024/01/14 00:13:02;;;;;;;1.10;1.00;;;3.10;99.90;;;;;;5155028;27;20039;-71
2024/01/14 00:15:27;;;;;;;12.18;3.42;;;3.10;99.90;;;;;;5155047;27;20043;-72
2024/01/14 00:17:53;;;;;;;1.10;1.00;;;3.10;99.90;;;;;;5155498;27;20050;-72
2024/01/14 00:20:18;;;;;;;1.10;1.00;;;3.10;99.90;;;;;;5155013;27;20505;-72
2024/01/14 00:22:44;;;;;;;1.38;1.23;;;3.10;99.90;;;;;;5154710;27;20035;-73
2024/01/14 00:25:11;;;;;;;1.10;1.00;;;3.10;99.90;;;;;;5154952;27;20130;-73
2024/01/14 00:27:37;;;;;;;1.10;1.00;;;3.00;99.90;;;;;;5155408;27;20047;-71
2024/01/14 00:30:03;;;;;;;1.15;1.05;;;3.10;99.90;;;;;;5154812;27;20402;-72
2024/01/14 00:32:29;;;;;;;1.10;1.00;;;3.00;99.90;;;;;;5154865;27;20046;-72
2024/01/14 00:34:55;;;;;;;1.10;1.00;;;3.00;99.90;;;;;;5138512;27;20135;-72
2024/01/14 00:37:20;;;;;;;0.95;0.95;;;3.10;99.90;;;;;;5158645;27;20367;-72
2024/01/14 00:39:46;;;;;;;0.95;0.95;;;3.10;99.90;;;;;;5158727;27;20038;-71
2024/01/14 00:42:11;;;;;;;1.10;1.00;;;3.10;99.90;;;;;;5158728;27;20106;-72
2024/01/14 00:44:40;;;;;;;1.10;1.00;;;3.10;99.90;;;;;;5158542;27;20126;-72
2024/01/14 00:47:06;;;;;;;1.10;1.00;;;4.20;99.90;;;;;;5158489;27;20053;-72
2024/01/14 00:49:31;;;;;;;0.90;0.90;;;3.10;99.90;;;;;;5158419;27;20039;-73
2024/01/14 00:51:57;;;;;;;1.10;1.00;;;3.10;99.90;;;;;;5158705;27;20106;-72
2024/01/14 00:54:23;;;;;;;1.10;1.00;;;3.10;99.90;;;;;;5158083;27;20121;-73
2024/01/14 00:56:48;;;;;;;1.10;1.00;;;3.10;99.90;;;;;;5158431;27;20091;-72
2024/01/14 00:59:14;;;;;;;1.10;1.00;;;3.10;99.90;;;;;;5158207;27;20126;-72
2024/01/14 01:01:39;;;;;;;1.10;1.00;;;3.10;99.90;;;;;;5158210;27;20047;-71
2024/01/14 01:04:05;;;;;;;1.10;1.00;;;3.10;99.90;;;;;;5158214;27;20042;-72
2024/01/14 01:06:30;;;;;;;0.90;0.90;;;3.10;99.90;;;;;;5158193;27;20042;-71
2024/01/14 01:08:56;;;;;;;0.90;0.90;;;3.20;99.90;;;;;;5157966;27;20071;-71
2024/01/14 01:11:22;;;;;;;0.90;0.90;;;3.20;99.90;;;;;;5157796;27;20091;-72
2024/01/14 01:13:47;;;;;;;1.10;1.00;;;3.20;99.90;;;;;;5157987;27;20046;-72
2024/01/14 01:16:13;;;;;;;1.10;1.00;;;3.20;99.90;;;;;;5157973;27;20047;-72
2024/01/14 01:18:39;;;;;;;1.10;1.00;;;3.20;99.90;;;;;;5157934;27;20538;-72
2024/01/14 01:21:05;;;;;;;1.10;1.00;;;3.20;99.90;;;;;;5157893;27;20043;-71
2024/01/14 01:23:30;;;;;;;1.10;1.00;;;3.20;99.90;;;;;;5157791;27;20604;-72
2024/01/14 01:25:56;;;;;;;1.10;1.00;;;3.20;99.90;;;;;;5157758;27;20043;-71
2024/01/14 01:28:22;;;;;;;1.10;1.00;;;3.20;99.90;;;;;;5157771;27;20035;-72
2024/01/14 01:30:47;;;;;;;1.08;1.00;;;3.30;99.90;;;;;;5157305;27;20054;-72
2024/01/14 01:33:13;;;;;;;2.33;2.13;;;3.30;99.90;;;;;;5157952;27;20039;-72
2024/01/14 01:35:38;;;;;;;1.10;1.00;;;3.30;99.90;;;;;;5157598;27;20394;-72
2024/01/14 01:38:05;;;;;;;1.10;1.00;;;3.30;99.90;;;;;;5157540;27;20034;-72
2024/01/14 01:40:30;;;;;;;1.10;1.00;;;3.30;99.90;;;;;;5157339;27;20508;-72
2024/01/14 01:42:56;;;;;;;1.10;1.00;;;3.40;99.90;;;;;;5157209;27;20046;-71
2024/01/14 01:45:21;;;;;;;1.10;1.00;;;3.40;99.90;;;;;;5156973;27;20047;-71
2024/01/14 01:47:47;;;;;;;1.00;1.00;;;3.40;99.90;;;;;;5157118;27;20077;-71
2024/01/14 01:50:13;;;;;;;1.02;1.00;;;3.50;99.90;;;;;;5157552;27;20085;-72
2024/01/14 01:52:39;;;;;;;1.10;1.00;;;3.50;99.90;;;;;;5157113;27;20041;-71
2024/01/14 01:55:05;;;;;;;1.10;1.00;;;3.50;99.90;;;;;;5157287;27;20043;-72
2024/01/14 01:57:33;;;;;;;1.10;1.00;;;3.50;99.90;;;;;;5157149;27;20405;-72
2024/01/14 02:00:00;;;;;;;1.10;1.00;;;3.50;99.90;;;;;;5156933;27;20462;-73
2024/01/14 02:02:26;;;;;;;1.10;1.00;;;3.50;99.90;;;;;;5157055;27;20159;-73
2024/01/14 02:04:52;;;;;;;1.10;1.00;;;3.50;99.90;;;;;;5157267;27;20054;-72
2024/01/14 02:07:20;;;;;;;1.10;1.00;;;3.50;99.90;;;;;;5157330;27;20047;-71
2024/01/14 02:09:46;;;;;;;1.10;1.00;;;3.50;99.90;;;;;;5157071;27;20042;-72
2024/01/14 02:12:11;;;;;;;1.10;1.00;;;3.50;99.90;;;;;;5138639;27;20066;-71
2024/01/14 02:14:37;;;;;;;1.10;1.00;;;3.60;99.90;;;;;;5156673;27;20046;-72
2024/01/14 02:17:03;;;;;;;1.10;1.00;;;3.50;99.90;;;;;;5156697;27;20034;-71
2024/01/14 02:19:28;;;;;;;1.00;1.00;;;3.50;99.90;;;;;;5156736;27;20068;-71
2024/01/14 02:22:01;;;;;;;0.90;0.90;;;3.50;99.90;;;;;;5156652;27;20047;-71
2024/01/14 02:24:29;;;;;;;0.90;0.90;;;3.50;99.90;;;;;;5156806;27;20087;-72
2024/01/14 02:26:55;;;;;;;0.90;0.90;;;3.50;99.90;;;;;;5156560;27;20078;-71
2024/01/14 02:29:22;;;;;;;0.90;0.90;;;3.50;99.90;;;;;;5156114;27;20398;-72
2024/01/14 02:31:48;;;;;;;1.30;1.20;;;3.50;99.90;;;;;;5156478;27;20054;-71
2024/01/14 02:34:14;;;;;;;0.90;0.90;;;3.50;99.90;;;;;;5156341;27;20046;-72
2024/01/14 02:36:40;;;;;;;1.08;0.98;;;3.50;99.90;;;;;;5156391;27;20299;-71
2024/01/14 02:39:06;;;;;;;1.10;1.00;;;3.40;99.90;;;;;;5156247;27;20043;-72
2024/01/14 02:41:33;;;;;;;1.10;1.00;;;3.50;99.90;;;;;;5156398;27;20363;-71
2024/01/14 02:43:58;;;;;;;0.90;0.90;;;3.40;99.90;;;;;;5156139;27;20038;-72
2024/01/14 02:46:24;;;;;;;1.10;1.00;;;3.40;99.90;;;;;;5156665;27;20039;-72
2024/01/14 02:48:50;;;;;;;0.93;0.90;;;3.40;99.90;;;;;;5155796;27;20149;-71
2024/01/14 02:51:15;;;;;;;0.90;0.90;;;3.40;99.90;;;;;;5156093;27;20042;-71
2024/01/14 02:53:42;;;;;;;0.90;0.90;;;3.40;99.90;;;;;;5155870;27;20042;-72
2024/01/14 02:56:09;;;;;;;0.90;0.90;;;3.40;99.90;;;;;;5155958;27;20051;-71
2024/01/14 02:58:35;;;;;;;3.72;1.52;;;3.40;99.90;;;;;;5155619;27;20042;-71
2024/01/14 03:01:01;;;;;;;0.90;0.90;;;3.40;99.90;;;;;;5137473;27;20398;-71
2024/01/14 03:03:27;;;;;;;1.02;0.98;;;4.60;99.90;;;;;;5155836;27;20045;-72
2024/01/14 03:05:52;;;;;;;1.10;1.00;;;3.30;99.90;;;;;;5156142;27;20062;-71
2024/01/14 03:08:18;;;;;;;1.10;1.00;;;3.30;99.90;;;;;;5155797;27;20125;-71
2024/01/14 03:10:44;;;;;;;1.10;1.00;;;3.30;99.90;;;;;;5155697;27;20084;-71
2024/01/14 03:13:10;;;;;;;1.10;1.00;;;3.20;99.90;;;;;;5155545;27;20490;-71
2024/01/14 03:15:35;;;;;;;1.00;0.98;;;3.20;99.90;;;;;;5156174;27;20031;-72
2024/01/14 03:18:01;;;;;;;1.08;1.00;;;3.20;99.90;;;;;;5155658;27;20053;-71
2024/01/14 03:20:27;;;;;;;1.10;1.00;;;3.10;99.90;;;;;;5155591;27;20051;-72
2024/01/14 03:22:53;;;;;;;0.90;0.90;;;3.10;99.90;;;;;;5155577;27;20067;-72
2024/01/14 03:25:18;;;;;;;1.10;1.00;;;3.10;99.90;;;;;;5155610;27;20129;-72
2024/01/14 03:27:44;;;;;;;1.10;1.00;;;3.00;99.90;;;;;;5155477;27;20042;-71
2024/01/14 03:30:10;;;;;;;1.10;1.00;;;3.00;99.90;;;;;;5155509;27;20139;-71
2024/01/14 03:32:36;;;;;;;0.90;0.90;;;3.00;99.90;;;;;;5155416;27;20038;-72
2024/01/14 03:35:02;;;;;;;1.10;1.00;;;3.00;99.90;;;;;;5155385;27;20091;-71
2024/01/14 03:37:27;;;;;;;1.10;1.00;;;2.90;99.90;;;;;;5155436;27;20050;-72
2024/01/14 03:39:53;;;;;;;1.20;1.10;;;2.90;99.90;;;;;;5136923;27;20447;-72
2024/01/14 03:42:18;;;;;;;0.90;0.90;;;2.90;99.90;;;;;;5155335;27;20045;-71
2024/01/14 03:44:44;;;;;;;1.10;1.00;;;2.90;99.90;;;;;;5155368;27;20047;-71
2024/01/14 03:47:10;;;;;;;0.90;0.90;;;2.80;99.90;;;;;;5155267;27;20054;-71
2024/01/14 03:49:35;;;;;;;1.10;1.00;;;2.80;99.90;;;;;;5155518;27;20063;-72
2024/01/14 03:52:01;;;;;;;1.10;1.00;;;2.80;99.90;;;;;;5155217;27;20039;-72
2024/01/14 03:54:26;;;;;;;1.10;1.00;;;2.80;99.90;;;;;;5155126;27;20382;-72
2024/01/14 03:56:52;;;;;;;1.08;1.00;;;2.90;99.90;;;;;;5155120;27;20099;-72
2024/01/14 03:59:18;;;;;;;1.08;0.98;;;2.90;99.90;;;;;;5155862;27;20078;-71
2024/01/14 04:01:43;;;;;;;1.15;1.05;;;2.90;99.90;;;;;;5155175;27;20038;-72
2024/01/14 04:04:09;;;;;;;1.23;1.13;;;2.90;99.90;;;;;;5155071;27;20035;-71
2024/01/14 04:06:35;;;;;;;1.10;1.00;;;2.90;99.90;;;;;;5155079;27;20042;-71
2024/01/14 04:09:01;;;;;;;1.10;1.00;;;2.90;99.90;;;;;;5155486;27;20492;-71
2024/01/14 04:11:27;;;;;;;1.07;0.97;;;2.90;99.90;;;;;;5159221;27;20359;-71
2024/01/14 04:13:52;;;;;;;1.10;1.00;;;2.80;99.90;;;;;;5158734;27;20344;-72
2024/01/14 04:16:18;;;;;;;1.10;1.00;;;2.80;99.90;;;;;;5159538;27;20478;-71
2024/01/14 04:18:44;;;;;;;1.20;1.10;;;2.80;99.90;;;;;;5159101;27;20442;-72
2024/01/14 04:21:23;;;;;;;1.10;1.00;;;2.80;99.90;;;;;;5159337;27;20099;-71
2024/01/14 04:23:50;;;;;;;1.10;1.00;;;2.90;99.90;;;;;;5159119;27;20389;-71
2024/01/14 04:26:22;;;;;;;1.10;1.00;;;2.80;99.90;;;;;;5158918;27;20118;-72
2024/01/14 04:28:49;;;;;;;1.10;1.00;;;2.80;99.90;;;;;;5158875;27;20051;-72
2024/01/14 04:31:15;;;;;;;1.10;1.00;;;2.80;99.90;;;;;;5159183;27;20043;-72
2024/01/14 04:33:40;;;;;;;1.10;1.00;;;2.80;99.90;;;;;;5158687;27;20451;-72
2024/01/14 04:36:06;;;;;;;1.10;1.00;;;2.80;99.90;;;;;;5158762;27;20062;-72
2024/01/14 04:38:32;;;;;;;1.10;1.00;;;2.80;99.90;;;;;;5158686;27;20074;-71
2024/01/14 04:40:58;;;;;;;1.10;1.00;;;2.80;99.90;;;;;;5158439;27;20030;-71
2024/01/14 04:43:23;;;;;;;1.10;1.00;;;2.80;99.90;;;;;;5158602;27;20063;-71
2024/01/14 04:45:49;;;;;;;1.10;1.00;;;2.80;99.90;;;;;;5158590;27;20133;-72
2024/01/14 04:48:14;;;;;;;1.20;1.10;;;2.70;99.90;;;;;;5158323;27;20039;-71
2024/01/14 04:50:40;;;;;;;1.05;1.00;;;2.80;99.90;;;;;;5158320;27;20042;-71
2024/01/14 04:53:06;;;;;;;1.15;1.05;;;2.70;99.90;;;;;;5158440;27;20125;-72
2024/01/14 04:55:32;;;;;;;0.90;0.90;;;2.70;99.90;;;;;;5158012;27;20394;-72
2024/01/14 04:57:58;;;;;;;0.98;0.98;;;2.70;99.90;;;;;;5158284;27;20047;-72
2024/01/14 05:00:24;;;;;;;1.10;1.00;;;2.70;99.90;;;;;;5158130;27;20030;-72
2024/01/14 05:02:49;;;;;;;1.17;1.08;;;2.70;99.90;;;;;;5158229;27;20127;-71
2024/01/14 05:05:15;;;;;;;1.10;1.00;;;2.70;99.90;;;;;;5158278;27;20051;-72
2024/01/14 05:07:41;;;;;;;0.90;0.90;;;2.70;99.90;;;;;;5158284;27;20034;-71
2024/01/14 05:10:07;;;;;;;1.10;1.00;;;2.80;99.90;;;;;;5157857;27;20091;-72
2024/01/14 05:12:33;;;;;;;1.10;1.00;;;2.70;99.90;;;;;;5158467;27;20093;-71
2024/01/14 05:14:59;;;;;;;1.08;1.00;;;2.70;99.90;;;;;;5157987;27;20070;-71
2024/01/14 05:17:24;;;;;;;0.95;0.95;;;2.80;99.90;;;;;;5158272;27;20042;-71
2024/01/14 05:19:51;;;;;;;1.10;1.00;;;2.80;99.90;;;;;;5157625;27;20482;-71
2024/01/14 05:22:17;;;;;;;1.10;1.00;;;2.80;99.90;;;;;;5158003;27;20424;-72
2024/01/14 05:24:43;;;;;;;0.90;0.90;;;2.80;99.90;;;;;;5157722;27;20043;-72
2024/01/14 05:27:10;;;;;;;1.20;1.10;;;2.80;99.90;;;;;;5157829;27;20368;-71
2024/01/14 05:29:43;;;;;;;1.10;1.00;;;2.80;99.90;;;;;;5157673;27;20035;-71
2024/01/14 05:32:14;;;;;;;1.08;0.98;;;2.70;99.90;;;;;;5157753;27;20042;-72
2024/01/14 05:34:40;;;;;;;0.90;0.90;;;2.70;99.90;;;;;;5157577;27;20050;-72
2024/01/14 05:37:06;;;;;;;1.17;1.08;;;2.70;99.90;;;;;;5157581;27;20046;-71
2024/01/14 05:39:33;;;;;;;1.10;1.00;;;2.70;99.90;;;;;;5157371;27;20042;-71
2024/01/14 05:41:59;;;;;;;1.10;1.00;;;2.60;99.90;;;;;;5157485;27;20039;-71
2024/01/14 05:44:25;;;;;;;1.10;1.00;;;2.60;99.90;;;;;;5157394;27;20042;-72
2024/01/14 05:46:51;;;;;;;1.13;1.02;;;2.60;99.90;;;;;;5157351;27;20117;-72
2024/01/14 05:49:17;;;;;;;1.10;1.00;;;2.50;99.90;;;;;;5157414;27;20138;-72
2024/01/14 05:51:42;;;;;;;1.10;1.00;;;2.50;99.90;;;;;;5157286;27;20074;-72
2024/01/14 05:54:08;;;;;;;1.10;1.00;;;2.50;99.90;;;;;;5157080;27;20137;-71
2024/01/14 05:56:34;;;;;;;2.25;1.30;;;2.50;99.90;;;;;;5157668;27;20115;-71
2024/01/14 05:59:02;;;;;;;1.10;1.00;;;2.40;99.90;;;;;;5157472;27;20050;-72
2024/01/14 06:01:29;;;;;;;1.10;1.00;;;2.40;99.90;;;;;;5156931;27;20489;-72
2024/01/14 06:03:55;;;;;;;1.10;1.00;;;2.40;99.90;;;;;;5157081;27;20039;-72
2024/01/14 06:06:21;;;;;;;1.10;1.00;;;2.40;99.90;;;;;;5156960;27;20053;-71
2024/01/14 06:08:46;;;;;;;1.10;1.00;;;2.40;99.90;;;;;;5156934;27;20121;-71
2024/01/14 06:11:13;;;;;;;1.10;1.00;;;2.40;99.90;;;;;;5156876;27;20550;-71
2024/01/14 06:13:39;;;;;;;1.05;1.00;;;2.40;99.90;;;;;;5157169;27;20393;-71
2024/01/14 06:16:05;;;;;;;1.10;1.00;;;2.40;99.90;;;;;;5156758;27;20042;-72
2024/01/14 06:18:30;;;;;;;1.10;1.00;;;2.40;99.90;;;;;;5156798;27;20531;-72
2024/01/14 06:20:59;;;;;;;1.10;1.00;;;2.40;99.90;;;;;;5156611;27;20047;-71
2024/01/14 06:23:25;;;;;;;1.10;1.00;;;2.40;99.90;;;;;;5156565;27;20042;-71
2024/01/14 06:25:51;;;;;;;1.10;1.00;;;2.50;99.90;;;;;;5156663;27;20506;-71
2024/01/14 06:28:16;;;;;;;0.90;0.90;;;2.50;99.90;;;;;;5156528;27;20080;-72
2024/01/14 06:30:42;;;;;;;1.10;1.00;;;2.50;99.90;;;;;;5156465;27;20074;-72
2024/01/14 06:33:09;;;;;;;1.10;1.00;;;2.50;99.90;;;;;;5155809;27;20034;-71
2024/01/14 06:35:34;;;;;;;1.10;1.00;;;2.50;99.90;;;;;;5156476;27;20039;-71
2024/01/14 06:38:00;;;;;;;0.98;0.93;;;2.60;99.90;;;;;;5156212;27;20041;-71
2024/01/14 06:40:26;;;;;;;1.20;1.10;;;2.60;99.90;;;;;;5156812;27;20071;-73
2024/01/14 06:42:51;;;;;;;0.90;0.90;;;2.50;99.90;;;;;;5156598;27;20038;-71
2024/01/14 06:45:17;;;;;;;1.10;1.00;;;2.60;99.90;;;;;;5156215;27;20129;-72
2024/01/14 06:47:42;;;;;;;1.05;0.95;;;2.60;99.90;;;;;;5156221;27;20047;-71
2024/01/14 06:50:09;;;;;;;1.10;1.00;;;2.60;99.90;;;;;;5155699;27;20099;-71
2024/01/14 06:52:34;;;;;;;1.10;1.00;;;2.60;99.90;;;;;;5155910;27;20074;-72
2024/01/14 06:55:00;;;;;;;1.10;1.00;;;2.70;99.90;;;;;;5156088;27;20404;-71
2024/01/14 06:57:25;;;;;;;1.10;1.00;;;2.70;99.90;;;;;;5137502;27;20046;-72
2024/01/14 06:59:51;;;;;;;1.10;1.00;;;2.70;99.90;;;;;;5155984;27;20039;-71
2024/01/14 07:02:17;;;;;;;1.13;1.02;;;2.70;99.90;;;;;;5156124;27;20084;-72
2024/01/14 07:04:42;;;;;;;1.02;0.93;;;2.70;99.90;;;;;;5155885;27;20043;-79
2024/01/14 07:07:08;;;;;;;1.10;1.00;;;2.70;99.90;;;;;;5137194;27;20051;-72
2024/01/14 07:09:34;;;;;;;1.15;1.05;;;2.70;99.90;;;;;;5155804;27;20034;-72
2024/01/14 07:12:00;;;;;;;1.10;1.00;;;2.70;99.90;;;;;;5155535;27;20047;-72
2024/01/14 07:14:26;;;;;;;1.10;1.00;;;2.80;99.90;;;;;;5155652;27;20083;-73
2024/01/14 07:16:52;;;;;;;1.10;1.00;;;2.80;99.90;;;;;;5155543;27;20086;-72
2024/01/14 07:19:17;;;;;;;1.10;1.00;;;2.80;99.90;;;;;;5155744;27;20038;-72
2024/01/14 07:21:44;;;;;;;1.10;1.00;;;2.80;99.90;;;;;;5155437;27;20546;-72
2024/01/14 07:24:09;;;;;;;1.00;1.00;;;2.80;99.90;;;;;;5155525;27;20126;-76
2024/01/14 07:26:35;;;;;;;1.10;1.00;;;2.70;99.90;;;;;;5156200;27;20074;-72
2024/01/14 07:29:01;;;;;;;1.20;1.10;;;2.80;99.90;;;;;;5155530;27;20043;-73
2024/01/14 07:31:28;;;;;;;1.10;1.00;;;2.80;99.90;;;;;;5155540;27;20042;-71
2024/01/14 07:33:54;;;;;;;1.10;1.00;;;2.80;99.90;;;;;;5155374;27;20089;-71
2024/01/14 07:36:19;;;;;;;1.10;1.00;;;2.80;99.90;;;;;;5155163;27;20082;-73
2024/01/14 07:38:45;;;;;;;1.10;1.00;;;2.70;99.90;;;;;;5155380;27;20045;-72
2024/01/14 07:41:15;;;;;;;1.10;1.00;;;2.70;99.90;;;;;;5155108;27;20047;-72
2024/01/14 07:43:41;;;;;;;1.10;1.00;;;2.70;99.90;;;;;;5155411;27;20060;-72
2024/01/14 07:46:07;;;;;;;1.10;1.00;;;2.80;99.90;;;;;;5159513;27;20047;-72
2024/01/14 07:48:34;;;;;;;1.10;1.00;;;3.30;99.90;;;;;;5159565;27;20093;-74
2024/01/14 07:51:00;;;;;;;1.10;1.00;;;2.80;99.90;;;;;;5159721;27;20120;-74
2024/01/14 07:53:26;;;;;;;1.10;1.00;;;2.80;99.90;;;;;;5159458;27;20038;-74
2024/01/14 07:55:52;;;;;;;1.10;1.00;;;2.80;99.90;;;;;;5159489;27;20122;-73
2024/01/14 07:58:18;;;;;;;1.20;1.10;;;2.80;99.90;;;;;;5159755;27;20084;-73
2024/01/14 08:00:44;;;;;;;1.10;1.00;;;2.80;99.90;;;;;;5159505;27;20039;-72
2024/01/14 08:03:10;;;;;;;1.10;1.00;;;2.80;99.90;;;;;;5159294;27;20043;-72
2024/01/14 08:05:37;;;;;;;1.10;1.00;;;2.80;99.90;;;;;;5159403;27;20039;-72
2024/01/14 08:08:03;;;;;;;1.10;1.00;;;2.80;99.90;;;;;;5159215;27;20046;-73
2024/01/14 08:10:29;;;;;;;1.10;1.00;;;2.90;99.90;;;;;;5159307;27;20054;-73
2024/01/14 08:12:54;;;;;;;1.02;1.00;;;2.90;99.90;;;;;;5159107;27;20042;-73
2024/01/14 08:15:20;;;;;;;1.10;1.00;;;2.90;99.90;;;;;;5159122;27;20042;-76
2024/01/14 08:17:46;;;;;;;1.10;1.00;;;2.90;99.90;;;;;;5159311;27;20039;-72
2024/01/14 08:20:11;;;;;;;1.10;1.00;;;3.00;99.90;;;;;;5159105;27;20083;-72
2024/01/14 08:22:38;;;;;;;0.90;0.90;;;3.00;99.90;;;;;;5159043;27;20038;-75
2024/01/14 08:25:04;;;;;;;1.10;1.00;;;3.00;99.90;;;;;;5158919;27;20039;-73
2024/01/14 08:27:30;;;;;;;0.95;0.95;;;3.00;99.90;;;;;;5140388;27;20378;-70
2024/01/14 08:29:55;;;;;;;0.90;0.90;;;3.00;99.90;;;;;;5158843;27;20064;-75
2024/01/14 08:32:21;;;;;;;1.08;1.00;;;3.00;99.90;;;;;;5158909;27;20481;-73
2024/01/14 08:34:47;;;;;;;1.05;1.00;;;3.10;99.90;;;;;;5158170;27;20078;-73
2024/01/14 08:37:13;;;;;;;1.10;1.00;;;3.10;99.90;;;;;;5157833;27;20463;-72
2024/01/14 08:39:39;;;;;;;1.10;1.00;;;3.10;99.90;;;;;;5158612;27;20090;-73
2024/01/14 08:42:04;;;;;;;0.90;0.90;;;3.10;99.90;;;;;;5158710;27;20047;-72
2024/01/14 08:44:30;;;;;;;1.10;1.00;;;3.10;99.90;;;;;;5158629;27;20038;-72
2024/01/14 08:46:55;;;;;;;1.10;1.00;;;3.20;99.90;;;;;;5158219;27;20042;-72
2024/01/14 08:49:23;;;;;;;1.10;1.00;;;3.20;99.90;;;;;;5158370;27;20054;-73
2024/01/14 08:51:49;;;;;;;1.73;1.63;;;3.20;99.90;;;;;;5158412;27;20050;-73
2024/01/14 08:54:14;;;;;;;1.10;1.00;;;3.20;99.90;;;;;;5158348;27;20477;-73
2024/01/14 08:56:40;;;;;;;1.00;0.95;;;3.30;99.90;;;;;;5139478;27;20043;-72
2024/01/14 08:59:05;;;;;;;1.10;1.00;;;3.50;99.90;;;;;;5158398;27;20156;-73
2024/01/14 09:01:31;;;;;;;1.10;1.00;;;3.30;99.90;;;;;;5158359;27;20107;-73
2024/01/14 09:03:57;;;;;;;0.80;0.80;;;3.30;99.90;;;;;;5158325;27;20038;-72
2024/01/14 09:06:22;;;;;;;0.90;0.90;;;3.40;99.90;;;;;;5158054;27;20042;-73
2024/01/14 09:08:48;;;;;;;0.90;0.90;;;3.30;99.90;;;;;;5158148;27;20064;-72
2024/01/14 09:11:14;;;;;;;1.30;1.20;;;3.40;99.90;;;;;;5158081;27;20099;-72
2024/01/14 09:13:39;;;;;;;1.10;1.00;;;3.40;99.90;;;;;;5158022;27;20039;-72
2024/01/14 09:16:06;;;;;;;0.90;0.90;;;3.40;99.90;;;;;;5158020;27;20447;-72
2024/01/14 09:18:31;;;;;;;1.10;1.00;;;3.40;99.90;;;;;;5139704;27;20402;-73
2024/01/14 09:20:57;;;;;;;0.90;0.90;;;3.40;99.90;;;;;;5157565;27;20291;-73
2024/01/14 09:23:23;;;;;;;1.08;0.98;;;3.40;99.90;;;;;;5157852;27;20046;-73
2024/01/14 09:25:48;;;;;;;1.10;1.00;;;3.40;99.90;;;;;;5157866;27;20474;-72
2024/01/14 09:28:14;;;;;;;0.90;0.90;;;3.50;99.90;;;;;;5157709;27;20455;-73
2024/01/14 09:30:39;;;;;;;1.35;1.23;;;3.50;99.90;;;;;;5157620;27;20133;-73
2024/01/14 09:33:05;;;;;;;1.10;1.00;;;3.50;99.90;;;;;;5157824;27;20042;-72
2024/01/14 09:35:31;;;;;;;0.90;0.90;;;3.50;99.90;;;;;;5157380;27;20089;-72
2024/01/14 09:37:57;;;;;;;1.02;1.02;;;3.50;99.90;;;;;;5157272;27;20049;-72
2024/01/14 09:40:23;;;;;;;1.52;1.42;;;3.50;99.90;;;;;;5157577;27;20039;-73
2024/01/14 09:42:52;;;;;;;0.90;0.90;;;3.50;99.90;;;;;;5157284;27;20501;-72
2024/01/14 09:45:18;;;;;;;0.90;0.90;;;3.60;99.90;;;;;;5157408;27;20043;-72
2024/01/14 09:47:44;;;;;;;1.00;0.95;;;3.60;99.90;;;;;;5157418;27;20091;-72
2024/01/14 09:50:10;;;;;;;1.10;1.00;;;3.60;99.90;;;;;;5138895;27;20122;-73
2024/01/14 09:52:39;;;;;;;0.90;0.90;;;3.60;99.90;;;;;;5157180;27;20427;-73
2024/01/14 09:55:06;;;;;;;1.00;0.98;;;3.60;99.90;;;;;;5157567;27;20469;-73
2024/01/14 09:57:34;;;;;;;1.38;1.27;;;3.60;99.90;;;;;;5157088;27;20050;-72
2024/01/14 10:00:04;;;;;;;0.90;0.90;;;3.60;99.90;;;;;;5157122;27;20042;-73
2024/01/14 10:02:33;;;;;;;0.90;0.90;;;3.70;99.90;;;;;;5157268;27;20046;-73
2024/01/14 10:04:59;;;;;;;1.00;0.90;;;3.70;99.90;;;;;;5157006;27;20034;-73
2024/01/14 10:07:26;;;;;;;1.10;1.00;;;3.70;99.90;;;;;;5155921;27;20470;-72
2024/01/14 10:09:52;;;;;;;0.90;0.90;;;3.70;99.90;;;;;;5156931;27;20038;-72
2024/01/14 10:12:18;;;;;;;1.10;1.00;;;3.60;99.90;;;;;;5156957;27;20093;-73
2024/01/14 10:14:44;;;;;;;1.73;1.60;;;3.60;99.90;;;;;;5157078;27;20039;-73
2024/01/14 10:17:14;;;;;;;1.10;1.00;;;3.60;99.90;;;;;;5156816;27;20589;-73
2024/01/14 10:19:39;;;;;;;1.10;1.00;;;3.60;99.90;;;;;;5156667;27;20078;-72
2024/01/14 10:22:06;;;;;;;0.80;0.80;;;3.60;99.90;;;;;;5156391;27;20125;-73
2024/01/14 10:24:33;;;;;;;1.00;0.95;;;3.60;99.90;;;;;;5157036;27;20050;-73
2024/01/14 10:26:58;;;;;;;0.90;0.90;;;4.70;99.90;;;;;;5156856;27;20053;-73
2024/01/14 10:29:24;;;;;;;0.90;0.90;;;3.70;99.90;;;;;;5156621;27;20035;-73
2024/01/14 10:31:50;;;;;;;0.98;0.98;;;3.70;99.90;;;;;;5156346;27;20051;-72
2024/01/14 10:34:17;;;;;;;0.80;0.80;;;3.70;99.90;;;;;;5156389;27;20126;-73
2024/01/14 10:36:43;;;;;;;0.90;0.90;;;3.70;99.90;;;;;;5156637;27;20053;-73
2024/01/14 10:39:11;;;;;;;0.90;0.90;;;3.70;99.90;;;;;;5156742;27;20129;-72
2024/01/14 10:41:36;;;;;;;1.00;0.90;;;3.70;99.90;;;;;;5156304;27;20066;-73
2024/01/14 10:44:02;;;;;;;1.48;1.38;;;3.70;99.90;;;;;;5156236;27;20039;-73
2024/01/14 10:46:34;;;;;;;0.90;0.90;;;3.70;99.90;;;;;;5156244;27;20038;-73
2024/01/14 10:49:06;;;;;;;1.30;1.20;;;3.70;99.90;;;;;;5156057;27;20090;-72
2024/01/14 10:51:37;;;;;;;1.30;1.20;;;3.70;99.90;;;;;;5156081;27;20125;-73
2024/01/14 10:54:26;;;;;;;0.90;0.90;;;4.00;99.90;;;;;;5156037;27;20039;-73
2024/01/14 10:57:14;;;;;;;0.90;0.90;;;3.70;99.90;;;;;;5156225;27;20066;-72
2024/01/14 10:59:42;;;;;;;0.90;0.90;;;3.70;99.90;;;;;;5155998;27;20095;-73
2024/01/14 11:02:16;;;;;;;1.95;1.85;;;3.70;99.90;;;;;;5155975;27;20133;-73
2024/01/14 11:04:43;;;;;;;1.58;1.48;;;3.80;99.90;;;;;;5155883;27;20038;-73
2024/01/14 11:07:10;;;;;;;0.98;0.90;;;3.80;99.90;;;;;;5155870;27;20088;-74
2024/01/14 11:09:35;;;;;;;2.40;2.20;;;3.80;99.90;;;;;;5155797;27;20042;-73
2024/01/14 11:12:10;;;;;;;1.20;1.10;;;3.80;99.90;;;;;;5155659;27;20042;-73
2024/01/14 11:15:01;;;;;;;1.65;1.55;;;3.80;99.90;;;;;;5155962;27;20390;-73
2024/01/14 11:17:49;;;;;;;1.00;1.00;;;3.90;99.90;;;;;;5155706;27;20098;-72
2024/01/14 11:20:18;;;;;;;2.13;2.03;;;3.90;99.90;;;;;;5155846;27;20367;-72
2024/01/14 11:22:44;;;;;;;1.20;1.10;;;3.90;99.90;;;;;;5155599;27;20061;-73
2024/01/14 11:25:17;;;;;;;1.30;1.20;;;3.90;99.90;;;;;;5155909;27;20161;-72
2024/01/14 11:27:43;;;;;;;1.23;1.13;;;3.90;99.90;;;;;;5155702;27;20074;-73
2024/01/14 11:30:11;;;;;;;1.52;1.42;;;3.90;99.90;;;;;;5155538;27;20042;-73
2024/01/14 11:32:37;;;;;;;1.27;1.17;;;4.00;99.90;;;;;;5137225;27;20121;-73
2024/01/14 11:35:03;;;;;;;0.82;0.82;;;3.90;99.90;;;;;;5155969;27;20454;-73
2024/01/14 11:37:29;;;;;;;1.10;1.00;;;3.90;99.90;;;;;;5155468;27;20049;-73
2024/01/14 11:40:17;;;;;;;1.40;1.30;;;3.90;99.90;;;;;;5155917;27;20142;-73
2024/01/14 11:42:53;;;;;;;1.02;0.95;;;3.90;99.90;;;;;;5154886;27;20046;-75
2024/01/14 11:45:25;;;;;;;1.98;1.88;;;4.00;99.90;;;;;;5136623;27;20420;-73
2024/01/14 11:47:55;;;;;;;1.20;1.10;;;4.00;99.90;;;;;;5159029;27;20046;-74
2024/01/14 11:50:23;;;;;;;0.90;0.90;;;4.00;99.90;;;;;;5160831;27;20142;-75
2024/01/14 11:52:51;;;;;;;1.00;1.00;;;4.00;99.90;;;;;;5155160;27;20054;-73
2024/01/14 11:55:18;;;;;;;1.35;1.25;;;4.00;99.90;;;;;;5154928;27;20409;-76
2024/01/14 11:57:44;;;;;;;1.55;1.45;;;4.00;99.90;;;;;;5163926;27;20042;-75
2024/01/14 12:00:16;;;;;;;0.90;0.90;;;4.40;99.90;;;;;;5155911;27;20078;-72
2024/01/14 12:02:41;;;;;;;1.02;0.95;;;4.00;99.90;;;;;;5155282;27;20038;-71
2024/01/14 12:05:20;;;;;;;1.20;1.10;;;4.00;99.90;;;;;;5155146;27;20098;-71
2024/01/14 12:07:46;;;;;;;0.90;0.90;;;4.10;99.90;;;;;;5155137;27;20039;-72
2024/01/14 12:10:16;;;;;;;1.05;1.02;;;4.20;99.90;;;;;;5155104;27;20061;-72
2024/01/14 12:12:42;;;;;;;1.00;0.90;;;4.10;99.90;;;;;;5155432;27;20046;-73
2024/01/14 12:15:13;;;;;;;1.90;1.80;;;4.10;99.90;;;;;;5155271;27;20041;-74
2024/01/14 12:17:39;;;;;;;1.23;1.13;;;4.10;99.90;;;;;;5155046;27;20049;-75
2024/01/14 12:20:08;;;;;;;0.90;0.90;;;4.00;99.90;;;;;;5154933;27;20046;-75
2024/01/14 12:22:35;;;;;;;1.15;1.08;;;4.00;99.90;;;;;;5154755;27;20494;-75
2024/01/14 12:25:01;;;;;;;1.10;1.00;;;4.10;99.90;;;;;;5155021;27;20045;-78
2024/01/14 12:27:27;;;;;;;1.30;1.17;;;4.10;99.90;;;;;;5155017;27;20042;-79
2024/01/14 12:29:52;;;;;;;0.90;0.90;;;4.10;99.90;;;;;;5154778;27;20043;-79
2024/01/14 12:32:18;;;;;;;1.10;1.00;;;4.10;99.90;;;;;;5159205;27;20086;-72
2024/01/14 12:34:44;;;;;;;1.00;1.00;;;4.10;99.90;;;;;;5158756;27;20078;-78
2024/01/14 12:37:10;;;;;;;1.10;1.00;;;4.10;99.90;;;;;;5158922;27;20086;-74
2024/01/14 12:39:36;;;;;;;1.10;1.00;;;4.10;99.90;;;;;;5158534;27;20046;-74
2024/01/14 12:42:02;;;;;;;1.10;1.00;;;4.10;99.90;;;;;;5157219;27;20031;-74
2024/01/14 12:44:32;;;;;;;0.90;0.90;;;4.10;99.90;;;;;;5158639;27;20042;-74
2024/01/14 12:47:05;;;;;;;0.90;0.90;;;4.10;99.90;;;;;;5158622;27;20069;-74
2024/01/14 12:49:31;;;;;;;1.00;1.00;;;4.10;99.90;;;;;;5158525;27;20549;-74
2024/01/14 12:52:01;;;;;;;1.38;1.27;;;4.10;99.90;;;;;;5158526;27;20133;-74
2024/01/14 12:54:26;;;;;;;0.90;0.90;;;4.00;99.90;;;;;;5158336;27;20042;-74